createdAt,value
2018-07-16T02:00:20.756Z,15.58
2018-07-16T02:00:24.853Z,15.58
2018-07-16T02:00:29.066Z,15.56
2018-07-16T02:00:33.272Z,15.54
2018-07-16T02:00:37.370Z,15.54
2018-07-16T02:00:41.362Z,15.52
2018-07-16T02:00:45.456Z,15.51
2018-07-16T02:00:49.662Z,15.5
2018-07-16T02:00:53.865Z,15.49
2018-07-16T02:00:58.173Z,15.47
2018-07-16T02:01:02.383Z,15.46
2018-07-16T02:01:06.605Z,15.46
2018-07-16T02:01:10.920Z,15.45
2018-07-16T02:01:15.129Z,15.44
2018-07-16T02:01:19.443Z,15.43
2018-07-16T02:01:23.757Z,15.42
2018-07-16T02:01:27.956Z,15.42
2018-07-16T02:01:32.158Z,15.4
2018-07-16T02:01:36.364Z,15.4
2018-07-16T02:01:40.674Z,15.39
2018-07-16T02:01:44.782Z,15.39
2018-07-16T02:01:49.001Z,15.38
2018-07-16T02:01:53.203Z,15.37
2018-07-16T02:01:57.404Z,15.37
2018-07-16T02:02:01.607Z,15.37
2018-07-16T02:02:05.817Z,15.36
2018-07-16T02:02:10.134Z,15.35
2018-07-16T02:02:14.343Z,15.34
2018-07-16T02:02:18.663Z,15.35
2018-07-16T02:02:22.977Z,15.33
2018-07-16T02:02:27.074Z,15.34
2018-07-16T02:02:31.275Z,15.33
2018-07-16T02:02:35.382Z,15.33
2018-07-16T02:02:39.689Z,15.32
2018-07-16T02:02:43.780Z,15.32
2018-07-16T02:02:48.090Z,15.32
2018-07-16T02:02:52.304Z,15.31
2018-07-16T02:02:56.509Z,15.31
2018-07-16T02:03:00.721Z,15.31
2018-07-16T02:03:04.761Z,15.31
2018-07-16T02:03:09.075Z,15.3
2018-07-16T02:03:13.386Z,15.29
2018-07-16T02:03:17.690Z,15.29
2018-07-16T02:03:21.899Z,15.29
2018-07-16T02:03:26.208Z,15.29
2018-07-16T02:03:30.529Z,15.28
2018-07-16T02:03:34.868Z,15.28
2018-07-16T02:03:39.073Z,15.28
2018-07-16T02:03:43.385Z,15.27
2018-07-16T02:03:47.742Z,15.28
2018-07-16T02:03:52.048Z,15.27
2018-07-16T02:03:56.255Z,15.27
2018-07-16T02:04:00.564Z,15.27
2018-07-16T02:04:04.769Z,15.26
2018-07-16T02:04:08.874Z,15.26
2018-07-16T02:04:13.181Z,15.26
2018-07-16T02:04:17.384Z,15.25
2018-07-16T02:04:21.697Z,15.26
2018-07-16T02:04:25.919Z,15.25
2018-07-16T02:04:30.126Z,15.26
2018-07-16T02:04:34.114Z,15.25
2018-07-16T02:04:38.317Z,15.25
2018-07-16T02:04:42.521Z,15.25
2018-07-16T02:04:46.610Z,15.24
2018-07-16T02:04:50.921Z,15.23
2018-07-16T02:04:55.232Z,15.24
2018-07-16T02:04:59.541Z,15.24
2018-07-16T02:05:03.748Z,15.24
2018-07-16T02:05:07.946Z,15.24
2018-07-16T02:05:12.147Z,15.23
2018-07-16T02:05:16.475Z,15.23
2018-07-16T02:05:20.785Z,15.23
2018-07-16T02:05:24.883Z,15.23
2018-07-16T02:05:29.189Z,15.23
2018-07-16T02:05:33.290Z,15.22
2018-07-16T02:05:37.388Z,15.22
2018-07-16T02:05:41.599Z,15.22
2018-07-16T02:05:45.710Z,15.22
2018-07-16T02:05:49.914Z,15.22
2018-07-16T02:05:54.226Z,15.22
2018-07-16T02:05:58.433Z,15.22
2018-07-16T02:06:02.745Z,15.21
2018-07-16T02:06:07.064Z,15.22
2018-07-16T02:06:11.379Z,15.21
2018-07-16T02:06:15.692Z,15.21
2018-07-16T02:06:20.008Z,15.21
2018-07-16T02:06:24.318Z,15.21
2018-07-16T02:06:28.625Z,15.2
2018-07-16T02:06:32.936Z,15.21
2018-07-16T02:06:37.244Z,15.21
2018-07-16T02:06:41.557Z,15.2
2018-07-16T02:06:45.881Z,15.2
2018-07-16T02:06:50.083Z,15.2
2018-07-16T02:06:54.398Z,15.2
2018-07-16T02:06:58.598Z,15.2
2018-07-16T02:07:02.587Z,15.19
2018-07-16T02:07:06.683Z,15.2
2018-07-16T02:07:10.999Z,15.2
2018-07-16T02:07:15.211Z,15.19
2018-07-16T02:07:19.525Z,15.19
2018-07-16T02:07:23.729Z,15.19
2018-07-16T02:07:27.827Z,15.19
2018-07-16T02:07:31.924Z,15.19
2018-07-16T02:07:36.071Z,15.19
2018-07-16T02:07:40.277Z,15.19
2018-07-16T02:07:44.482Z,15.19
2018-07-16T02:07:48.794Z,15.18
2018-07-16T02:07:52.785Z,15.19
2018-07-16T02:07:57.094Z,15.18
2018-07-16T02:08:01.206Z,15.19
2018-07-16T02:08:05.413Z,15.18
2018-07-16T02:08:09.723Z,15.18
2018-07-16T02:08:13.938Z,15.18
2018-07-16T02:08:17.927Z,15.18
2018-07-16T02:08:22.135Z,15.17
2018-07-16T02:08:26.350Z,15.17
2018-07-16T02:08:30.669Z,15.17
2018-07-16T02:08:34.874Z,15.17
2018-07-16T02:08:38.980Z,15.17
2018-07-16T02:08:43.077Z,15.17
2018-07-16T02:08:47.275Z,15.17
2018-07-16T02:08:51.487Z,15.16
2018-07-16T02:08:55.797Z,15.17
2018-07-16T02:09:00.113Z,15.16
2018-07-16T02:09:04.207Z,15.17
2018-07-16T02:09:08.301Z,15.16
2018-07-16T02:09:12.397Z,15.16
2018-07-16T02:09:16.707Z,15.16
2018-07-16T02:09:20.908Z,15.16
2018-07-16T02:09:24.900Z,15.16
2018-07-16T02:09:28.882Z,15.15
2018-07-16T02:09:33.085Z,15.15
2018-07-16T02:09:37.189Z,15.15
2018-07-16T02:09:41.177Z,15.15
2018-07-16T02:09:45.280Z,15.16
2018-07-16T02:09:49.594Z,15.15
2018-07-16T02:09:53.905Z,15.15
2018-07-16T02:09:58.114Z,15.15
2018-07-16T02:10:02.321Z,15.15
2018-07-16T02:10:06.108Z,15.14
2018-07-16T02:10:10.420Z,15.15
2018-07-16T02:10:14.728Z,15.14
2018-07-16T02:10:18.926Z,15.15
2018-07-16T02:10:23.138Z,15.14
2018-07-16T02:10:27.352Z,15.14
2018-07-16T02:10:31.557Z,15.14
2018-07-16T02:10:35.869Z,15.15
2018-07-16T02:10:39.965Z,15.14
2018-07-16T02:10:44.071Z,15.14
2018-07-16T02:10:48.394Z,15.14
2018-07-16T02:10:52.591Z,15.13
2018-07-16T02:10:56.905Z,15.14
2018-07-16T02:11:01.053Z,15.14
2018-07-16T02:11:05.255Z,15.13
2018-07-16T02:11:09.464Z,15.14
2018-07-16T02:11:13.666Z,15.14
2018-07-16T02:11:17.871Z,15.14
2018-07-16T02:11:22.073Z,15.13
2018-07-16T02:11:26.167Z,15.13
2018-07-16T02:11:30.380Z,15.13
2018-07-16T02:11:34.684Z,15.13
2018-07-16T02:11:38.999Z,15.13
2018-07-16T02:11:43.203Z,15.13
2018-07-16T02:11:47.407Z,15.13
2018-07-16T02:11:51.728Z,15.13
2018-07-16T02:11:55.940Z,15.13
2018-07-16T02:12:00.044Z,15.13
2018-07-16T02:12:04.253Z,15.13
2018-07-16T02:12:08.458Z,15.12
2018-07-16T02:12:12.658Z,15.12
2018-07-16T02:12:16.967Z,15.13
2018-07-16T02:12:21.167Z,15.13
2018-07-16T02:12:25.373Z,15.12
2018-07-16T02:12:29.686Z,15.12
2018-07-16T02:12:34.007Z,15.13
2018-07-16T02:12:38.001Z,15.12
2018-07-16T02:12:42.202Z,15.12
2018-07-16T02:12:46.406Z,15.12
2018-07-16T02:12:50.720Z,15.11
2018-07-16T02:12:54.924Z,15.12
2018-07-16T02:12:59.229Z,15.12
2018-07-16T02:13:03.601Z,15.11
2018-07-16T02:13:07.602Z,15.11
2018-07-16T02:13:11.915Z,15.11
2018-07-16T02:13:16.014Z,15.11
2018-07-16T02:13:20.322Z,15.09
2018-07-16T02:13:24.420Z,15.1
2018-07-16T02:13:28.727Z,15.1
2018-07-16T02:13:33.048Z,15.1
2018-07-16T02:13:37.247Z,15.1
2018-07-16T02:13:41.235Z,15.1
2018-07-16T02:13:45.332Z,15.1
2018-07-16T02:13:49.537Z,15.1
2018-07-16T02:13:53.636Z,15.09
2018-07-16T02:13:57.992Z,15.1
2018-07-16T02:14:02.353Z,15.09
2018-07-16T02:14:06.546Z,15.09
2018-07-16T02:14:10.757Z,15.1
2018-07-16T02:14:15.067Z,15.1
2018-07-16T02:14:19.371Z,15.1
2018-07-16T02:14:23.578Z,15.09
2018-07-16T02:14:27.562Z,15.09
2018-07-16T02:14:31.599Z,15.09
2018-07-16T02:14:35.806Z,15.09
2018-07-16T02:14:40.006Z,15.08
2018-07-16T02:14:44.122Z,15.09
2018-07-16T02:14:48.332Z,15.09
2018-07-16T02:14:52.642Z,15.08
2018-07-16T02:14:56.738Z,15.08
2018-07-16T02:15:01.049Z,15.08
2018-07-16T02:15:05.381Z,15.08
2018-07-16T02:15:09.478Z,15.07
2018-07-16T02:15:13.576Z,15.08
2018-07-16T02:15:17.778Z,15.08
2018-07-16T02:15:21.666Z,15.06
2018-07-16T02:15:25.763Z,15.07
2018-07-16T02:15:30.075Z,15.07
2018-07-16T02:15:34.388Z,15.07
2018-07-16T02:15:38.584Z,15.07
2018-07-16T02:15:42.682Z,15.06
2018-07-16T02:15:46.682Z,15.06
2018-07-16T02:15:50.999Z,15.05
2018-07-16T02:15:55.097Z,15.06
2018-07-16T02:15:59.406Z,15.06
2018-07-16T02:16:03.403Z,15.05
2018-07-16T02:16:07.612Z,15.06
2018-07-16T02:16:11.932Z,15.05
2018-07-16T02:16:16.254Z,15.05
2018-07-16T02:16:20.347Z,15.05
2018-07-16T02:16:24.334Z,15.05
2018-07-16T02:16:28.428Z,15.06
2018-07-16T02:16:32.735Z,15.06
2018-07-16T02:16:36.840Z,15.05
2018-07-16T02:16:41.090Z,15.05
2018-07-16T02:16:45.184Z,15.05
2018-07-16T02:16:49.499Z,15.04
2018-07-16T02:16:53.698Z,15.04
2018-07-16T02:16:58.012Z,15.04
2018-07-16T02:17:02.109Z,15.04
2018-07-16T02:17:06.318Z,15.03
2018-07-16T02:17:10.309Z,15.04
2018-07-16T02:17:14.413Z,15.04
2018-07-16T02:17:18.732Z,15.04
2018-07-16T02:17:22.729Z,15.03
2018-07-16T02:17:26.839Z,15.04
2018-07-16T02:17:31.051Z,15.03
2018-07-16T02:17:35.254Z,15.03
2018-07-16T02:17:39.460Z,15.02
2018-07-16T02:17:43.766Z,15.03
2018-07-16T02:17:47.973Z,15.02
2018-07-16T02:17:52.073Z,15.02
2018-07-16T02:17:56.377Z,15.03
2018-07-16T02:18:00.476Z,15.02
2018-07-16T02:18:04.689Z,15.02
2018-07-16T02:18:08.898Z,15.02
2018-07-16T02:18:13.104Z,15.02
2018-07-16T02:18:17.320Z,15.02
2018-07-16T02:18:21.633Z,15.02
2018-07-16T02:18:25.839Z,15.01
2018-07-16T02:18:30.042Z,15.01
2018-07-16T02:18:34.252Z,15.01
2018-07-16T02:18:38.352Z,15.01
2018-07-16T02:18:42.562Z,15.01
2018-07-16T02:18:46.554Z,15.01
2018-07-16T02:18:50.649Z,15.01
2018-07-16T02:18:54.759Z,15.01
2018-07-16T02:18:59.070Z,15
2018-07-16T02:19:03.278Z,15.01
2018-07-16T02:19:07.479Z,15.01
2018-07-16T02:19:11.685Z,15.01
2018-07-16T02:19:15.889Z,15
2018-07-16T02:19:20.104Z,15.01
2018-07-16T02:19:24.205Z,15.01
2018-07-16T02:19:28.088Z,15
2018-07-16T02:19:32.401Z,15
2018-07-16T02:19:36.717Z,15
2018-07-16T02:19:41.027Z,15
2018-07-16T02:19:45.239Z,15
2018-07-16T02:19:49.546Z,14.99
2018-07-16T02:19:53.749Z,14.99
2018-07-16T02:19:57.950Z,14.99
2018-07-16T02:20:02.361Z,14.99
2018-07-16T02:20:06.469Z,15
2018-07-16T02:20:10.669Z,14.99
2018-07-16T02:20:14.882Z,14.99
2018-07-16T02:20:19.084Z,14.98
2018-07-16T02:20:23.178Z,14.98
2018-07-16T02:20:27.381Z,14.98
2018-07-16T02:20:31.478Z,14.98
2018-07-16T02:20:35.790Z,14.98
2018-07-16T02:20:39.889Z,14.98
2018-07-16T02:20:44.093Z,14.98
2018-07-16T02:20:48.189Z,14.98
2018-07-16T02:20:52.509Z,14.97
2018-07-16T02:20:56.714Z,14.97
2018-07-16T02:21:00.917Z,14.98
2018-07-16T02:21:05.123Z,14.97
2018-07-16T02:21:09.433Z,14.96
2018-07-16T02:21:13.638Z,14.96
2018-07-16T02:21:17.950Z,14.97
2018-07-16T02:21:22.255Z,14.96
2018-07-16T02:21:26.456Z,14.97
2018-07-16T02:21:30.766Z,14.96
2018-07-16T02:21:34.865Z,14.96
2018-07-16T02:21:39.169Z,14.96
2018-07-16T02:21:43.378Z,14.95
2018-07-16T02:21:47.583Z,14.96
2018-07-16T02:21:51.784Z,14.95
2018-07-16T02:21:56.089Z,14.96
2018-07-16T02:22:00.291Z,14.95
2018-07-16T02:22:04.389Z,14.95
2018-07-16T02:22:08.596Z,14.94
2018-07-16T02:22:12.805Z,14.94
2018-07-16T02:22:17.016Z,14.94
2018-07-16T02:22:21.331Z,14.94
2018-07-16T02:22:25.639Z,14.94
2018-07-16T02:22:29.737Z,14.93
2018-07-16T02:22:34.057Z,14.95
2018-07-16T02:22:38.262Z,14.93
2018-07-16T02:22:42.463Z,14.94
2018-07-16T02:22:46.669Z,14.93
2018-07-16T02:22:50.981Z,14.92
2018-07-16T02:22:54.975Z,14.93
2018-07-16T02:22:59.305Z,14.93
2018-07-16T02:23:03.524Z,14.92
2018-07-16T02:23:07.523Z,14.93
2018-07-16T02:23:11.791Z,14.93
2018-07-16T02:23:16.097Z,14.91
2018-07-16T02:23:20.310Z,14.92
2018-07-16T02:23:24.406Z,14.92
2018-07-16T02:23:28.612Z,14.92
2018-07-16T02:23:32.817Z,14.92
2018-07-16T02:23:36.923Z,14.91
2018-07-16T02:23:41.128Z,14.91
2018-07-16T02:23:45.438Z,14.91
2018-07-16T02:23:49.752Z,14.91
2018-07-16T02:23:53.961Z,14.92
2018-07-16T02:23:58.057Z,14.9
2018-07-16T02:24:02.380Z,14.9
2018-07-16T02:24:06.585Z,14.9
2018-07-16T02:24:10.677Z,14.9
2018-07-16T02:24:14.875Z,14.9
2018-07-16T02:24:19.074Z,14.89
2018-07-16T02:24:23.382Z,14.89
2018-07-16T02:24:27.486Z,14.89
2018-07-16T02:24:31.797Z,14.89
2018-07-16T02:24:35.899Z,14.89
2018-07-16T02:24:40.098Z,14.88
2018-07-16T02:24:44.411Z,14.88
2018-07-16T02:24:48.503Z,14.88
2018-07-16T02:24:52.811Z,14.88
2018-07-16T02:24:56.908Z,14.88
2018-07-16T02:25:01.261Z,14.88
2018-07-16T02:25:05.467Z,14.87
2018-07-16T02:25:09.671Z,14.87
2018-07-16T02:25:13.876Z,14.86
2018-07-16T02:25:18.134Z,14.87
2018-07-16T02:25:22.447Z,14.87
2018-07-16T02:25:26.652Z,14.86
2018-07-16T02:25:30.858Z,14.85
2018-07-16T02:25:34.962Z,14.85
2018-07-16T02:25:39.173Z,14.85
2018-07-16T02:25:43.274Z,14.85
2018-07-16T02:25:47.493Z,14.85
2018-07-16T02:25:51.703Z,14.85
2018-07-16T02:25:55.802Z,14.84
2018-07-16T02:26:00.014Z,14.84
2018-07-16T02:26:04.110Z,14.84
2018-07-16T02:26:08.207Z,14.84
2018-07-16T02:26:12.411Z,14.83
2018-07-16T02:26:16.617Z,14.84
2018-07-16T02:26:20.925Z,14.83
2018-07-16T02:26:25.241Z,14.83
2018-07-16T02:26:29.558Z,14.83
2018-07-16T02:26:33.548Z,14.82
2018-07-16T02:26:37.859Z,14.82
2018-07-16T02:26:42.166Z,14.82
2018-07-16T02:26:46.383Z,14.82
2018-07-16T02:26:50.590Z,14.82
2018-07-16T02:26:54.794Z,14.82
2018-07-16T02:26:58.897Z,14.81
2018-07-16T02:27:03.111Z,14.81
2018-07-16T02:27:07.320Z,14.81
2018-07-16T02:27:11.681Z,14.8
2018-07-16T02:27:15.891Z,14.8
2018-07-16T02:27:19.991Z,14.8
2018-07-16T02:27:24.202Z,14.8
2018-07-16T02:27:28.513Z,14.79
2018-07-16T02:27:32.611Z,14.79
2018-07-16T02:27:36.765Z,14.79
2018-07-16T02:27:41.079Z,14.79
2018-07-16T02:27:45.391Z,14.78
2018-07-16T02:27:49.598Z,14.78
2018-07-16T02:27:53.693Z,14.78
2018-07-16T02:27:58.002Z,14.77
2018-07-16T02:28:02.118Z,14.77
2018-07-16T02:28:06.007Z,14.77
2018-07-16T02:28:10.104Z,14.77
2018-07-16T02:28:14.307Z,14.77
2018-07-16T02:28:18.682Z,14.76
2018-07-16T02:28:22.892Z,14.76
2018-07-16T02:28:27.197Z,14.76
2018-07-16T02:28:31.400Z,14.76
2018-07-16T02:28:35.604Z,14.76
2018-07-16T02:28:39.803Z,14.75
2018-07-16T02:28:44.005Z,14.75
2018-07-16T02:28:48.203Z,14.74
2018-07-16T02:28:52.520Z,14.74
2018-07-16T02:28:56.614Z,14.73
2018-07-16T02:29:00.821Z,14.73
2018-07-16T02:29:05.034Z,14.73
2018-07-16T02:29:09.240Z,14.73
2018-07-16T02:29:13.441Z,14.73
2018-07-16T02:29:17.748Z,14.73
2018-07-16T02:29:21.949Z,14.73
2018-07-16T02:29:26.157Z,14.71
2018-07-16T02:29:30.483Z,14.71
2018-07-16T02:29:34.801Z,14.71
2018-07-16T02:29:39.009Z,14.7
2018-07-16T02:29:43.324Z,14.71
2018-07-16T02:29:47.526Z,14.71
2018-07-16T02:29:51.835Z,14.71
2018-07-16T02:29:56.151Z,14.7
2018-07-16T02:30:00.356Z,14.7
2018-07-16T02:30:04.462Z,14.7
2018-07-16T02:30:08.683Z,14.69
2018-07-16T02:30:12.829Z,14.69
2018-07-16T02:30:17.156Z,14.69
2018-07-16T02:30:21.482Z,14.69
2018-07-16T02:30:25.729Z,14.68
2018-07-16T02:30:29.956Z,14.69
2018-07-16T02:30:34.265Z,14.68
2018-07-16T02:30:38.477Z,14.68
2018-07-16T02:30:42.469Z,14.68
2018-07-16T02:30:46.794Z,14.67
2018-07-16T02:30:51.006Z,14.67
2018-07-16T02:30:55.314Z,14.67
2018-07-16T02:30:59.637Z,14.66
2018-07-16T02:31:03.635Z,14.66
2018-07-16T02:31:07.860Z,14.65
2018-07-16T02:31:11.958Z,14.66
2018-07-16T02:31:16.067Z,14.66
2018-07-16T02:31:20.179Z,14.65
2018-07-16T02:31:24.496Z,14.65
2018-07-16T02:31:28.710Z,14.65
2018-07-16T02:31:32.923Z,14.65
2018-07-16T02:31:37.150Z,14.64
2018-07-16T02:31:41.363Z,14.64
2018-07-16T02:31:45.572Z,14.64
2018-07-16T02:31:49.896Z,14.64
2018-07-16T02:31:54.102Z,14.63
2018-07-16T02:31:58.431Z,14.63
2018-07-16T02:32:02.533Z,14.63
2018-07-16T02:32:06.766Z,14.63
2018-07-16T02:32:10.974Z,14.62
2018-07-16T02:32:15.298Z,14.62
2018-07-16T02:32:19.521Z,14.62
2018-07-16T02:32:23.636Z,14.62
2018-07-16T02:32:27.844Z,14.61
2018-07-16T02:32:32.159Z,14.6
2018-07-16T02:32:36.481Z,14.61
2018-07-16T02:32:40.797Z,14.6
2018-07-16T02:32:45.171Z,14.6
2018-07-16T02:32:49.376Z,14.6
2018-07-16T02:32:53.488Z,14.59
2018-07-16T02:32:57.815Z,14.6
2018-07-16T02:33:01.913Z,14.59
2018-07-16T02:33:05.805Z,14.58
2018-07-16T02:33:10.011Z,14.59
2018-07-16T02:33:14.138Z,14.59
2018-07-16T02:33:18.353Z,14.58
2018-07-16T02:33:22.567Z,14.57
2018-07-16T02:33:26.701Z,14.57
2018-07-16T02:33:30.816Z,14.58
2018-07-16T02:33:35.018Z,14.56
2018-07-16T02:33:39.137Z,14.56
2018-07-16T02:33:43.448Z,14.56
2018-07-16T02:33:47.651Z,14.56
2018-07-16T02:33:51.746Z,14.56
2018-07-16T02:33:55.964Z,14.56
2018-07-16T02:34:00.179Z,14.56
2018-07-16T02:34:04.392Z,14.55
2018-07-16T02:34:08.716Z,14.56
2018-07-16T02:34:12.816Z,14.55
2018-07-16T02:34:17.144Z,14.55
2018-07-16T02:34:21.242Z,14.54
2018-07-16T02:34:25.568Z,14.53
2018-07-16T02:34:29.685Z,14.53
2018-07-16T02:34:33.782Z,14.54
2018-07-16T02:34:38.024Z,14.52
2018-07-16T02:34:42.137Z,14.52
2018-07-16T02:34:46.452Z,14.52
2018-07-16T02:34:50.552Z,14.53
2018-07-16T02:34:54.651Z,14.52
2018-07-16T02:34:58.861Z,14.51
2018-07-16T02:35:02.989Z,14.5
2018-07-16T02:35:06.984Z,14.51
2018-07-16T02:35:11.192Z,14.5
2018-07-16T02:35:15.509Z,14.5
2018-07-16T02:35:19.823Z,14.5
2018-07-16T02:35:24.154Z,14.5
2018-07-16T02:35:28.361Z,14.5
2018-07-16T02:35:32.674Z,14.49
2018-07-16T02:35:36.888Z,14.49
2018-07-16T02:35:40.994Z,14.49
2018-07-16T02:35:45.344Z,14.48
2018-07-16T02:35:49.588Z,14.48
2018-07-16T02:35:53.693Z,14.48
2018-07-16T02:35:58.031Z,14.48
2018-07-16T02:36:02.031Z,14.48
2018-07-16T02:36:06.127Z,14.48
2018-07-16T02:36:10.337Z,14.47
2018-07-16T02:36:14.665Z,14.47
2018-07-16T02:36:18.661Z,14.46
2018-07-16T02:36:22.977Z,14.45
2018-07-16T02:36:27.194Z,14.46
2018-07-16T02:36:31.507Z,14.46
2018-07-16T02:36:35.828Z,14.45
2018-07-16T02:36:40.036Z,14.45
2018-07-16T02:36:44.346Z,14.45
2018-07-16T02:36:48.662Z,14.45
2018-07-16T02:36:52.874Z,14.44
2018-07-16T02:36:57.084Z,14.44
2018-07-16T02:37:01.408Z,14.43
2018-07-16T02:37:05.405Z,14.42
2018-07-16T02:37:09.621Z,14.43
2018-07-16T02:37:13.825Z,14.43
2018-07-16T02:37:18.147Z,14.42
2018-07-16T02:37:22.471Z,14.43
2018-07-16T02:37:26.580Z,14.42
2018-07-16T02:37:30.899Z,14.42
2018-07-16T02:37:35.113Z,14.41
2018-07-16T02:37:39.213Z,14.41
2018-07-16T02:37:43.326Z,14.41
2018-07-16T02:37:47.533Z,14.41
2018-07-16T02:37:51.742Z,14.4
2018-07-16T02:37:56.050Z,14.4
2018-07-16T02:38:00.280Z,14.4
2018-07-16T02:38:04.552Z,14.4
2018-07-16T02:38:08.768Z,14.4
2018-07-16T02:38:12.986Z,14.39
2018-07-16T02:38:17.303Z,14.39
2018-07-16T02:38:21.672Z,14.39
2018-07-16T02:38:25.880Z,14.39
2018-07-16T02:38:30.200Z,14.38
2018-07-16T02:38:34.525Z,14.38
2018-07-16T02:38:38.917Z,14.38
2018-07-16T02:38:43.340Z,14.38
2018-07-16T02:38:47.671Z,14.38
2018-07-16T02:38:51.912Z,14.38
2018-07-16T02:38:56.234Z,14.38
2018-07-16T02:39:00.473Z,14.37
2018-07-16T02:39:04.576Z,14.37
2018-07-16T02:39:08.564Z,14.37
2018-07-16T02:39:12.784Z,14.36
2018-07-16T02:39:17.005Z,14.36
2018-07-16T02:39:21.342Z,14.37
2018-07-16T02:39:25.352Z,14.36
2018-07-16T02:39:29.598Z,14.36
2018-07-16T02:39:33.868Z,14.36
2018-07-16T02:39:38.077Z,14.35
2018-07-16T02:39:42.177Z,14.35
2018-07-16T02:39:46.385Z,14.35
2018-07-16T02:39:50.494Z,14.34
2018-07-16T02:39:54.826Z,14.34
2018-07-16T02:39:58.825Z,14.34
2018-07-16T02:40:02.929Z,14.34
2018-07-16T02:40:07.032Z,14.34
2018-07-16T02:40:11.139Z,14.34
2018-07-16T02:40:15.343Z,14.33
2018-07-16T02:40:19.443Z,14.33
2018-07-16T02:40:23.658Z,14.33
2018-07-16T02:40:27.888Z,14.33
2018-07-16T02:40:32.197Z,14.33
2018-07-16T02:40:36.407Z,14.33
2018-07-16T02:40:40.682Z,14.33
2018-07-16T02:40:44.988Z,14.33
2018-07-16T02:40:49.203Z,14.32
2018-07-16T02:40:53.412Z,14.31
2018-07-16T02:40:57.625Z,14.31
2018-07-16T02:41:01.985Z,14.31
2018-07-16T02:41:05.999Z,14.31
2018-07-16T02:41:10.205Z,14.31
2018-07-16T02:41:14.442Z,14.3
2018-07-16T02:41:18.648Z,14.31
2018-07-16T02:41:22.859Z,14.3
2018-07-16T02:41:26.965Z,14.29
2018-07-16T02:41:31.181Z,14.29
2018-07-16T02:41:35.490Z,14.3
2018-07-16T02:41:39.874Z,14.3
2018-07-16T02:41:43.981Z,14.29
2018-07-16T02:41:48.202Z,14.28
2018-07-16T02:41:52.421Z,14.29
2018-07-16T02:41:56.632Z,14.29
2018-07-16T02:42:00.952Z,14.28
2018-07-16T02:42:05.056Z,14.29
2018-07-16T02:42:09.265Z,14.28
2018-07-16T02:42:13.596Z,14.28
2018-07-16T02:42:17.825Z,14.27
2018-07-16T02:42:22.156Z,14.27
2018-07-16T02:42:26.380Z,14.27
2018-07-16T02:42:30.714Z,14.27
2018-07-16T02:42:35.027Z,14.28
2018-07-16T02:42:39.124Z,14.26
2018-07-16T02:42:43.222Z,14.26
2018-07-16T02:42:47.541Z,14.26
2018-07-16T02:42:51.746Z,14.26
2018-07-16T02:42:55.854Z,14.26
2018-07-16T02:42:59.948Z,14.25
2018-07-16T02:43:04.166Z,14.25
2018-07-16T02:43:08.485Z,14.25
2018-07-16T02:43:12.706Z,14.25
2018-07-16T02:43:16.923Z,14.25
2018-07-16T02:43:21.266Z,14.25
2018-07-16T02:43:25.482Z,14.24
2018-07-16T02:43:29.702Z,14.24
2018-07-16T02:43:34.032Z,14.25
2018-07-16T02:43:38.037Z,14.24
2018-07-16T02:43:42.140Z,14.23
2018-07-16T02:43:46.462Z,14.23
2018-07-16T02:43:50.673Z,14.24
2018-07-16T02:43:54.683Z,14.23
2018-07-16T02:43:58.999Z,14.23
2018-07-16T02:44:02.994Z,14.24
2018-07-16T02:44:07.018Z,14.23
2018-07-16T02:44:11.125Z,14.22
2018-07-16T02:44:15.345Z,14.22
2018-07-16T02:44:19.462Z,14.23
2018-07-16T02:44:23.698Z,14.22
2018-07-16T02:44:27.914Z,14.22
2018-07-16T02:44:31.905Z,14.22
2018-07-16T02:44:36.223Z,14.22
2018-07-16T02:44:40.441Z,14.22
2018-07-16T02:44:44.647Z,14.22
2018-07-16T02:44:48.857Z,14.21
2018-07-16T02:44:52.956Z,14.22
2018-07-16T02:44:57.276Z,14.21
2018-07-16T02:45:01.400Z,14.21
2018-07-16T02:45:05.575Z,14.21
2018-07-16T02:45:09.681Z,14.22
2018-07-16T02:45:13.897Z,14.21
2018-07-16T02:45:17.992Z,14.21
2018-07-16T02:45:22.308Z,14.21
2018-07-16T02:45:26.518Z,14.21
2018-07-16T02:45:30.727Z,14.21
2018-07-16T02:45:34.833Z,14.2
2018-07-16T02:45:39.157Z,14.2
2018-07-16T02:45:43.263Z,14.2
2018-07-16T02:45:47.662Z,14.21
2018-07-16T02:45:51.988Z,14.2
2018-07-16T02:45:56.100Z,14.19
2018-07-16T02:46:00.320Z,14.19
2018-07-16T02:46:04.327Z,14.19
2018-07-16T02:46:08.537Z,14.19
2018-07-16T02:46:12.647Z,14.2
2018-07-16T02:46:16.750Z,14.19
2018-07-16T02:46:20.980Z,14.19
2018-07-16T02:46:25.077Z,14.19
2018-07-16T02:46:29.409Z,14.19
2018-07-16T02:46:33.746Z,14.18
2018-07-16T02:46:38.082Z,14.19
2018-07-16T02:46:42.398Z,14.18
2018-07-16T02:46:46.632Z,14.18
2018-07-16T02:46:50.848Z,14.18
2018-07-16T02:46:55.065Z,14.18
2018-07-16T02:46:59.179Z,14.18
2018-07-16T02:47:03.333Z,14.18
2018-07-16T02:47:07.326Z,14.18
2018-07-16T02:47:11.605Z,14.18
2018-07-16T02:47:15.818Z,14.18
2018-07-16T02:47:20.033Z,14.18
2018-07-16T02:47:24.236Z,14.17
2018-07-16T02:47:28.560Z,14.16
2018-07-16T02:47:32.766Z,14.17
2018-07-16T02:47:37.081Z,14.17
2018-07-16T02:47:41.281Z,14.17
2018-07-16T02:47:45.381Z,14.17
2018-07-16T02:47:49.694Z,14.17
2018-07-16T02:47:53.897Z,14.17
2018-07-16T02:47:58.013Z,14.17
2018-07-16T02:48:01.908Z,14.17
2018-07-16T02:48:06.008Z,14.16
2018-07-16T02:48:10.213Z,14.16
2018-07-16T02:48:14.206Z,14.17
2018-07-16T02:48:18.208Z,14.17
2018-07-16T02:48:22.525Z,14.16
2018-07-16T02:48:26.518Z,14.16
2018-07-16T02:48:30.729Z,14.17
2018-07-16T02:48:35.040Z,14.16
2018-07-16T02:48:39.370Z,14.16
2018-07-16T02:48:43.693Z,14.16
2018-07-16T02:48:48.022Z,14.16
2018-07-16T02:48:52.310Z,14.16
2018-07-16T02:48:56.626Z,14.16
2018-07-16T02:49:00.831Z,14.16
2018-07-16T02:49:04.965Z,14.16
2018-07-16T02:49:09.280Z,14.16
2018-07-16T02:49:13.381Z,14.16
2018-07-16T02:49:17.482Z,14.15
2018-07-16T02:49:21.693Z,14.16
2018-07-16T02:49:25.799Z,14.16
2018-07-16T02:49:30.127Z,14.15
2018-07-16T02:49:34.119Z,14.15
2018-07-16T02:49:38.332Z,14.16
2018-07-16T02:49:42.585Z,14.15
2018-07-16T02:49:46.792Z,14.14
2018-07-16T02:49:51.003Z,14.14
2018-07-16T02:49:55.211Z,14.15
2018-07-16T02:49:59.495Z,14.15
2018-07-16T02:50:03.715Z,14.15
2018-07-16T02:50:07.812Z,14.15
2018-07-16T02:50:11.806Z,14.14
2018-07-16T02:50:16.116Z,14.14
2018-07-16T02:50:20.435Z,14.14
2018-07-16T02:50:24.649Z,14.14
2018-07-16T02:50:28.967Z,14.14
2018-07-16T02:50:33.066Z,14.14
2018-07-16T02:50:37.162Z,14.14
2018-07-16T02:50:41.371Z,14.14
2018-07-16T02:50:45.692Z,14.13
2018-07-16T02:50:50.009Z,14.14
2018-07-16T02:50:54.225Z,14.14
2018-07-16T02:50:58.548Z,14.14
2018-07-16T02:51:02.658Z,14.14
2018-07-16T02:51:06.764Z,14.14
2018-07-16T02:51:11.084Z,14.13
2018-07-16T02:51:15.294Z,14.14
2018-07-16T02:51:19.393Z,14.14
2018-07-16T02:51:23.722Z,14.13
2018-07-16T02:51:27.817Z,14.13
2018-07-16T02:51:32.146Z,14.13
2018-07-16T02:51:36.361Z,14.13
2018-07-16T02:51:40.570Z,14.13
2018-07-16T02:51:44.783Z,14.13
2018-07-16T02:51:48.995Z,14.13
2018-07-16T02:51:53.310Z,14.13
2018-07-16T02:51:57.623Z,14.13
2018-07-16T02:52:01.827Z,14.13
2018-07-16T02:52:06.139Z,14.12
2018-07-16T02:52:10.355Z,14.12
2018-07-16T02:52:14.671Z,14.12
2018-07-16T02:52:18.897Z,14.12
2018-07-16T02:52:23.105Z,14.12
2018-07-16T02:52:27.414Z,14.12
2018-07-16T02:52:31.535Z,14.12
2018-07-16T02:52:35.858Z,14.12
2018-07-16T02:52:40.062Z,14.11
2018-07-16T02:52:44.276Z,14.12
2018-07-16T02:52:48.491Z,14.12
2018-07-16T02:52:52.600Z,14.12
2018-07-16T02:52:56.917Z,14.11
2018-07-16T02:53:01.028Z,14.11
2018-07-16T02:53:05.133Z,14.1
2018-07-16T02:53:09.352Z,14.11
2018-07-16T02:53:13.561Z,14.11
2018-07-16T02:53:17.775Z,14.12
2018-07-16T02:53:21.983Z,14.1
2018-07-16T02:53:26.200Z,14.11
2018-07-16T02:53:30.513Z,14.11
2018-07-16T02:53:34.886Z,14.11
2018-07-16T02:53:38.985Z,14.1
2018-07-16T02:53:43.202Z,14.1
2018-07-16T02:53:47.422Z,14.11
2018-07-16T02:53:51.527Z,14.11
2018-07-16T02:53:55.733Z,14.1
2018-07-16T02:54:00.133Z,14.1
2018-07-16T02:54:04.455Z,14.11
2018-07-16T02:54:08.784Z,14.1
2018-07-16T02:54:13.106Z,14.1
2018-07-16T02:54:17.344Z,14.1
2018-07-16T02:54:21.475Z,14.09
2018-07-16T02:54:25.587Z,14.09
2018-07-16T02:54:29.690Z,14.1
2018-07-16T02:54:33.901Z,14.09
2018-07-16T02:54:38.244Z,14.1
2018-07-16T02:54:42.559Z,14.1